Weather observations for the past three days for
Lawrence, Lawrence Municipal Airport
Imperial (Metric)
Date Time (cdt) Wind (mph) Vis. (mi.) Weather Sky Cond. Temperature (ºF) Relative Humidity Wind Chill (°F) Heat Index (°F) Pressure Precipitation (in)
Air Dwpt 6 hour altimeter (in) sea level (mb) 1 hr 3 hr 6 hr
Max. Min.
03 14:52 S 14 G 22 10.00 Fair CLR 97 68 39% 102 29.87 1010.4
03 13:52 S 17 G 23 10.00 Fair CLR 97 68 39% 102 29.88 1010.9
03 12:52 S 14 G 22 10.00 Fair CLR 95 68 95 75.9 41% 100 29.9 1011.5
03 11:52 S 15 G 21 10.00 Fair CLR 93 68 44% 97 29.92 1012.1
03 10:52 SW 12 G 21 10.00 Fair CLR 91 69.1 49% 96 29.93 1012.3
03 09:52 S 10 G 22 10.00 Fair CLR 87.1 69.1 55% 91 29.93 1012.5
03 08:52 S 15 10.00 Fair CLR 82.9 69.1 63% 87 29.93 1012.6
03 07:52 S 7 10.00 Fair CLR 79 66.9 67% 81 29.94 1012.7
03 06:52 S 6 10.00 Fair CLR 75.9 66.9 77 70 74% 77 29.92 1012.0
03 05:52 S 5 10.00 Fair CLR 77 66 69% 79 29.91 1011.7
03 04:52 Vrbl 3 10.00 Fair CLR 72 66 82% 29.9 1011.6
03 03:52 E 6 10.00 Fair CLR 72 66 82% 29.9 1011.5
03 02:52 E 7 10.00 Fair CLR 70 66 87% 29.9 1011.3
03 01:52 E 6 10.00 Fair CLR 73 66.9 81% 29.9 1011.4
03 00:52 SE 5 10.00 Fair CLR 75 66.9 95 73.9 76% 76 29.9 1011.4
02 23:52 E 7 10.00 Fair CLR 77 66.9 71% 79 29.9 1011.4
02 22:52 E 6 10.00 Fair CLR 75.9 66.9 74% 77 29.9 1011.5
02 21:52 SE 5 10.00 Fair CLR 77 68 74% 79 29.9 1011.5
02 20:52 SE 5 10.00 Fair CLR 79 69.1 72% 82 29.88 1010.9
02 19:52 S 5 7.00 Fair CLR 84.9 69.1 59% 89 29.86 1010.3
02 18:52 S 7 10.00 Fair CLR 95 64.9 100.9 95 37% 98 29.87 1010.4
02 17:52 S 12 10.00 Fair CLR 98.1 64 33% 101 29.87 1010.4
02 16:52 SW 9 10.00 Fair CLR 99 64.9 33% 102 29.88 1010.6
02 15:52 S 12 G 23 10.00 Partly Cloudy SCT085 100 64.9 32% 103 29.9 1011.3
02 14:52 S 13 G 28 10.00 Fair CLR 100 66.9 34% 105 29.91 1011.9
02 13:52 S 14 10.00 Fair CLR 99 66 34% 103 29.94 1012.7
02 12:52 S 12 G 22 10.00 Fair CLR 98.1 68 98.1 70 38% 103 29.96 1013.4
02 11:52 SW 15 G 21 10.00 Fair CLR 96.1 69.1 41% 102 29.98 1014.1
02 10:52 SW 10 10.00 Fair CLR 91 69.1 49% 96 29.98 1014.4
02 09:52 SW 8 G 17 10.00 Fair CLR 87.1 66.9 51% 90 29.98 1014.4
02 08:52 SE 5 10.00 Fair CLR 81 68 65% 84 29.99 1014.7
02 07:52 SE 5 9.00 Fair CLR 73.9 66.9 79% 29.98 1014.5
02 05:52 E 5 10.00 Fair CLR 71.1 64.9 81% 29.96 1013.6
02 04:52 E 3 10.00 Fair CLR 70 64.9 84% 29.96 1013.3
02 03:52 E 6 10.00 Fair CLR 71.1 64.9 81% 29.94 1012.9
02 02:52 E 3 10.00 Fair CLR 69.1 66 90% 29.93 1012.6
02 01:52 E 5 10.00 Fair CLR 71.1 64.9 81% 29.93 1012.6
02 00:52 E 5 10.00 Fair CLR 73.9 64.9 93.9 72 74% 29.94 1012.7
01 23:52 SE 5 10.00 Fair CLR 73.9 64.9 74% 29.93 1012.6
01 22:52 SE 5 9.00 Fair CLR 75 66 74% 76 29.94 1012.8
01 21:52 SE 5 10.00 Fair CLR 77 66.9 71% 79 29.92 1012.4
01 19:52 S 6 6.00 Fair with Haze CLR 82.9 68 61% 86 29.9 1011.8
01 18:52 S 6 10.00 Fair CLR 93.9 63 100.9 93.9 36% 95 29.91 1012.0
01 17:52 S 12 10.00 Fair CLR 98.1 61 29% 99 29.91 1011.9
01 16:52 SW 14 10.00 Fair CLR 100 60.1 27% 101 29.91 1011.9
01 14:52 S 13 G 22 10.00 Fair CLR 100 62.1 29% 102 29.95 1013.1
01 13:52 SW 14 G 21 10.00 Fair CLR 100 63 30% 102 29.96 1013.5
01 12:52 SW 16 G 26 10.00 Fair CLR 98.1 63 98.1 66 32% 100 29.99 1014.4
01 11:52 S 13 G 21 10.00 Fair CLR 96.1 64.9 36% 99 30 1014.9
01 10:52 S 7 10.00 Fair CLR 90 64.9 44% 92 30.01 1015.3
01 09:52 S 6 10.00 Fair CLR 86 64.9 49% 88 30.02 1015.5
01 08:52 SE 3 9.00 Fair CLR 78.1 66 67% 80 30.02 1015.8
01 07:52 SE 6 8.00 Fair CLR 71.1 66 84% 30.01 1015.5
01 06:52 E 3 9.00 Fair CLR 66 63 72 64.9 90% 30 1014.9
01 04:52 E 8 10.00 Fair CLR 69.1 63 81% 29.98 1014.1
01 03:52 E 3 10.00 Fair CLR 68 64 87% 29.96 1013.6
01 02:52 E 5 10.00 Fair CLR 69.1 64 84% 29.96 1013.4
01 01:52 Calm 10.00 Fair CLR 69.1 64 84% 29.97 1013.7
01 00:52 E 5 10.00 Fair CLR 71.1 64 95 70 79% 29.97 1013.8
31 23:52 E 6 10.00 Fair CLR 73.9 64 71% 29.96 1013.5
31 22:52 SE 5 10.00 Fair CLR 75.9 64.9 69% 78 29.95 1013.4
31 21:52 SE 6 10.00 Fair CLR 78.1 68 71% 80 29.94 1013.0
31 20:52 SE 3 10.00 Fair CLR 77 71.1 82% 79 29.93 1012.6
31 19:52 E 3 10.00 Fair CLR 82 71.1 69% 86 29.91 1012.0
31 18:52 S 7 10.00 Fair CLR 96.1 64.9 102 96.1 36% 99 29.91 1011.8
31 17:52 S 13 10.00 Fair CLR 98.1 64 33% 101 29.91 1011.6
31 16:52 S 8 10.00 Fair CLR 100.9 64.9 31% 105 29.91 1011.7
31 15:52 SW 9 10.00 Fair CLR 100.9 64 30% 104 29.92 1012.1
Date Time (cdt) Wind (mph) Vis. (mi.) Weather Sky Cond. Air Dwpt Max. Min. Relative Humidity Wind Chill (°F) Heat Index (°F) altimeter (in) sea level (mb) 1 hr 3 hr 6 hr
6 hour
Temperature (ºF) Pressure Precipitation (in)